<?xml version="1.0" encoding="utf-8"?>
<gpx xmlns:xsi="http://www.w3.org/2001/XMLSchema-instance" xmlns:xsd="http://www.w3.org/2001/XMLSchema" version="1.1" creator="Shapelink.com" xmlns="http://www.topografix.com/GPX/1/1" xmlns:gpxtpx="http://www.garmin.com/xmlschemas/TrackPointExtension/v1">
  <metadata>
    <name>Löpning 3.29 km, 2020-07-04</name>
    <desc></desc>
    <author><name>Marian Moron</name></author> 
    <time>2020-07-04T10:44:51Z</time>
  </metadata>
  <trk>
    <name>Löpning 3.29 km, 2020-07-04</name>
    <trkseg>
      <trkpt lat="51.215455273247" lon="4.483334057501">
        <ele>0</ele>
        <time>2020-07-04T10:44:51Z</time>
      </trkpt>
      <trkpt lat="51.2154709474" lon="4.483649803674">
        <ele>1</ele>
        <time>2020-07-04T10:44:59Z</time>
      </trkpt>
      <trkpt lat="51.215479916033" lon="4.483952306445">
        <ele>1.8</ele>
        <time>2020-07-04T10:45:08Z</time>
      </trkpt>
      <trkpt lat="51.215481424775" lon="4.48427123774">
        <ele>1.6</ele>
        <time>2020-07-04T10:45:18Z</time>
      </trkpt>
      <trkpt lat="51.215447394261" lon="4.484558066358">
        <ele>1.6</ele>
        <time>2020-07-04T10:45:26Z</time>
      </trkpt>
      <trkpt lat="51.215347482013" lon="4.484809774815">
        <ele>2.8</ele>
        <time>2020-07-04T10:45:34Z</time>
      </trkpt>
      <trkpt lat="51.215186298076" lon="4.484962241576">
        <ele>3.8</ele>
        <time>2020-07-04T10:45:42Z</time>
      </trkpt>
      <trkpt lat="51.215005249036" lon="4.484996020633">
        <ele>2.4</ele>
        <time>2020-07-04T10:45:50Z</time>
      </trkpt>
      <trkpt lat="51.214828307127" lon="4.484915889669">
        <ele>2.2</ele>
        <time>2020-07-04T10:45:58Z</time>
      </trkpt>
      <trkpt lat="51.214667542285" lon="4.484735175905">
        <ele>2</ele>
        <time>2020-07-04T10:46:07Z</time>
      </trkpt>
      <trkpt lat="51.214632338305" lon="4.484448682563">
        <ele>0</ele>
        <time>2020-07-04T10:46:16Z</time>
      </trkpt>
      <trkpt lat="51.214622196206" lon="4.484427811632">
        <ele>0</ele>
        <time>2020-07-04T10:46:17Z</time>
      </trkpt>
      <trkpt lat="51.214606941148" lon="4.484432505496">
        <ele>0</ele>
        <time>2020-07-04T10:46:19Z</time>
      </trkpt>
      <trkpt lat="51.214676091823" lon="4.484709108196">
        <ele>0</ele>
        <time>2020-07-04T10:46:29Z</time>
      </trkpt>
      <trkpt lat="51.214824451453" lon="4.484909519425">
        <ele>0</ele>
        <time>2020-07-04T10:46:39Z</time>
      </trkpt>
      <trkpt lat="51.215020168818" lon="4.484964756146">
        <ele>0</ele>
        <time>2020-07-04T10:46:49Z</time>
      </trkpt>
      <trkpt lat="51.21520859393" lon="4.484868364296">
        <ele>0</ele>
        <time>2020-07-04T10:46:58Z</time>
      </trkpt>
      <trkpt lat="51.215342620511" lon="4.484675161501">
        <ele>0.6</ele>
        <time>2020-07-04T10:47:07Z</time>
      </trkpt>
      <trkpt lat="51.215426858606" lon="4.484424291234">
        <ele>0</ele>
        <time>2020-07-04T10:47:15Z</time>
      </trkpt>
      <trkpt lat="51.215437922714" lon="4.484135702417">
        <ele>0</ele>
        <time>2020-07-04T10:47:23Z</time>
      </trkpt>
      <trkpt lat="51.215418560525" lon="4.48382951161">
        <ele>0</ele>
        <time>2020-07-04T10:47:31Z</time>
      </trkpt>
      <trkpt lat="51.215400371802" lon="4.483519046034">
        <ele>0</ele>
        <time>2020-07-04T10:47:40Z</time>
      </trkpt>
      <trkpt lat="51.215382183079" lon="4.483210173019">
        <ele>0</ele>
        <time>2020-07-04T10:47:49Z</time>
      </trkpt>
      <trkpt lat="51.215388720961" lon="4.482986376289">
        <ele>0</ele>
        <time>2020-07-04T10:47:56Z</time>
      </trkpt>
      <trkpt lat="51.21457659867" lon="4.483051922747">
        <ele>1.4</ele>
        <time>2020-07-04T10:50:17Z</time>
      </trkpt>
      <trkpt lat="51.214571737168" lon="4.483342355582">
        <ele>1</ele>
        <time>2020-07-04T10:50:28Z</time>
      </trkpt>
      <trkpt lat="51.214576011937" lon="4.483632201684">
        <ele>0</ele>
        <time>2020-07-04T10:50:37Z</time>
      </trkpt>
      <trkpt lat="51.214594619755" lon="4.483937302844">
        <ele>1.4</ele>
        <time>2020-07-04T10:50:45Z</time>
      </trkpt>
      <trkpt lat="51.214604845673" lon="4.484251456456">
        <ele>3.6</ele>
        <time>2020-07-04T10:50:53Z</time>
      </trkpt>
      <trkpt lat="51.214637451264" lon="4.484540799644">
        <ele>4</ele>
        <time>2020-07-04T10:51:01Z</time>
      </trkpt>
      <trkpt lat="51.214748092344" lon="4.484793681567">
        <ele>4.4</ele>
        <time>2020-07-04T10:51:09Z</time>
      </trkpt>
      <trkpt lat="51.214909863014" lon="4.484941873559">
        <ele>5.8</ele>
        <time>2020-07-04T10:51:17Z</time>
      </trkpt>
      <trkpt lat="51.215102562895" lon="4.484962912128">
        <ele>7.8</ele>
        <time>2020-07-04T10:51:26Z</time>
      </trkpt>
      <trkpt lat="51.215274978578" lon="4.484845230252">
        <ele>6.2</ele>
        <time>2020-07-04T10:51:35Z</time>
      </trkpt>
      <trkpt lat="51.215398779241" lon="4.484636269485">
        <ele>4</ele>
        <time>2020-07-04T10:51:44Z</time>
      </trkpt>
      <trkpt lat="51.215472539961" lon="4.484352039256">
        <ele>2.2</ele>
        <time>2020-07-04T10:51:53Z</time>
      </trkpt>
      <trkpt lat="51.215459296559" lon="4.484043585336">
        <ele>4</ele>
        <time>2020-07-04T10:52:01Z</time>
      </trkpt>
      <trkpt lat="51.215440185827" lon="4.4837213851">
        <ele>6.4</ele>
        <time>2020-07-04T10:52:10Z</time>
      </trkpt>
      <trkpt lat="51.215437252162" lon="4.483403627271">
        <ele>2</ele>
        <time>2020-07-04T10:52:19Z</time>
      </trkpt>
      <trkpt lat="51.215432977393" lon="4.483108416753">
        <ele>1.4</ele>
        <time>2020-07-04T10:52:27Z</time>
      </trkpt>
      <trkpt lat="51.215366006012" lon="4.482839190125">
        <ele>2</ele>
        <time>2020-07-04T10:52:36Z</time>
      </trkpt>
      <trkpt lat="51.215241786254" lon="4.482611705359">
        <ele>3</ele>
        <time>2020-07-04T10:52:45Z</time>
      </trkpt>
      <trkpt lat="51.215073729159" lon="4.482469632154">
        <ele>2.8</ele>
        <time>2020-07-04T10:52:54Z</time>
      </trkpt>
      <trkpt lat="51.214883879124" lon="4.482489329619">
        <ele>0.6</ele>
        <time>2020-07-04T10:53:02Z</time>
      </trkpt>
      <trkpt lat="51.214747840887" lon="4.482578345397">
        <ele>0</ele>
        <time>2020-07-04T10:53:08Z</time>
      </trkpt>
      <trkpt lat="51.214620687464" lon="4.482793005856">
        <ele>0.4</ele>
        <time>2020-07-04T10:53:16Z</time>
      </trkpt>
      <trkpt lat="51.214574167919" lon="4.482973300525">
        <ele>1.8</ele>
        <time>2020-07-04T10:53:21Z</time>
      </trkpt>
      <trkpt lat="51.214634852875" lon="4.484632665268">
        <ele>1.4</ele>
        <time>2020-07-04T10:56:32Z</time>
      </trkpt>
      <trkpt lat="51.21476770599" lon="4.484822012389">
        <ele>1.2</ele>
        <time>2020-07-04T10:56:40Z</time>
      </trkpt>
      <trkpt lat="51.214944061166" lon="4.484953189124">
        <ele>1.4</ele>
        <time>2020-07-04T10:56:47Z</time>
      </trkpt>
      <trkpt lat="51.215126199853" lon="4.484949920183">
        <ele>2.2</ele>
        <time>2020-07-04T10:56:54Z</time>
      </trkpt>
      <trkpt lat="51.21540221582" lon="4.484573405235">
        <ele>0.4</ele>
        <time>2020-07-04T10:57:11Z</time>
      </trkpt>
      <trkpt lat="51.2154541836" lon="4.48427878145">
        <ele>0.8</ele>
        <time>2020-07-04T10:57:20Z</time>
      </trkpt>
      <trkpt lat="51.2154458017" lon="4.483970243711">
        <ele>0</ele>
        <time>2020-07-04T10:57:28Z</time>
      </trkpt>
      <trkpt lat="51.215434737592" lon="4.483666986569">
        <ele>0</ele>
        <time>2020-07-04T10:57:36Z</time>
      </trkpt>
      <trkpt lat="51.215416297412" lon="4.483380325589">
        <ele>0</ele>
        <time>2020-07-04T10:57:43Z</time>
      </trkpt>
      <trkpt lat="51.215407328779" lon="4.483067513081">
        <ele>0</ele>
        <time>2020-07-04T10:57:52Z</time>
      </trkpt>
      <trkpt lat="51.215342536692" lon="4.48279183239">
        <ele>0</ele>
        <time>2020-07-04T10:58:00Z</time>
      </trkpt>
      <trkpt lat="51.21520105022" lon="4.482572645705">
        <ele>0</ele>
        <time>2020-07-04T10:58:09Z</time>
      </trkpt>
      <trkpt lat="51.215025197958" lon="4.482465608842">
        <ele>0.8</ele>
        <time>2020-07-04T10:58:17Z</time>
      </trkpt>
      <trkpt lat="51.21483895214" lon="4.482490419266">
        <ele>0.2</ele>
        <time>2020-07-04T10:58:25Z</time>
      </trkpt>
      <trkpt lat="51.214684222266" lon="4.482678425283">
        <ele>0.8</ele>
        <time>2020-07-04T10:58:33Z</time>
      </trkpt>
      <trkpt lat="51.214592440461" lon="4.482947316635">
        <ele>1.2</ele>
        <time>2020-07-04T10:58:41Z</time>
      </trkpt>
      <trkpt lat="51.214573497367" lon="4.483248059207">
        <ele>2.4</ele>
        <time>2020-07-04T10:58:48Z</time>
      </trkpt>
      <trkpt lat="51.214604426578" lon="4.483540419879">
        <ele>3.6</ele>
        <time>2020-07-04T10:58:55Z</time>
      </trkpt>
      <trkpt lat="51.214625465147" lon="4.483844682849">
        <ele>4</ele>
        <time>2020-07-04T10:59:03Z</time>
      </trkpt>
      <trkpt lat="51.214630745744" lon="4.484153974959">
        <ele>4.6</ele>
        <time>2020-07-04T10:59:12Z</time>
      </trkpt>
      <trkpt lat="51.214640552567" lon="4.484473576806">
        <ele>4.2</ele>
        <time>2020-07-04T10:59:21Z</time>
      </trkpt>
      <trkpt lat="51.214640133472" lon="4.484545577327">
        <ele>3.4</ele>
        <time>2020-07-04T10:59:23Z</time>
      </trkpt>
      <trkpt lat="51.215441946026" lon="4.484409455271">
        <ele>0</ele>
        <time>2020-07-04T11:02:50Z</time>
      </trkpt>
      <trkpt lat="51.215465163889" lon="4.484121117911">
        <ele>0</ele>
        <time>2020-07-04T11:02:57Z</time>
      </trkpt>
      <trkpt lat="51.215456949627" lon="4.483819620968">
        <ele>0</ele>
        <time>2020-07-04T11:03:04Z</time>
      </trkpt>
      <trkpt lat="51.215446220795" lon="4.483508317202">
        <ele>0</ele>
        <time>2020-07-04T11:03:11Z</time>
      </trkpt>
      <trkpt lat="51.215429792271" lon="4.483221069489">
        <ele>0</ele>
        <time>2020-07-04T11:03:17Z</time>
      </trkpt>
      <trkpt lat="51.2153619827" lon="4.482946981359">
        <ele>0.4</ele>
        <time>2020-07-04T11:03:23Z</time>
      </trkpt>
      <trkpt lat="51.215265842307" lon="4.48268370588">
        <ele>0</ele>
        <time>2020-07-04T11:03:30Z</time>
      </trkpt>
      <trkpt lat="51.215089906226" lon="4.482530987662">
        <ele>0.8</ele>
        <time>2020-07-04T11:03:38Z</time>
      </trkpt>
      <trkpt lat="51.214904750055" lon="4.482523024857">
        <ele>0.2</ele>
        <time>2020-07-04T11:03:45Z</time>
      </trkpt>
      <trkpt lat="51.214743063204" lon="4.48266610389">
        <ele>1</ele>
        <time>2020-07-04T11:03:53Z</time>
      </trkpt>
      <trkpt lat="51.214637367445" lon="4.482914878682">
        <ele>0.6</ele>
        <time>2020-07-04T11:04:02Z</time>
      </trkpt>
      <trkpt lat="51.214589758253" lon="4.483229116113">
        <ele>0</ele>
        <time>2020-07-04T11:04:10Z</time>
      </trkpt>
      <trkpt lat="51.214618759627" lon="4.483545700476">
        <ele>0</ele>
        <time>2020-07-04T11:04:18Z</time>
      </trkpt>
      <trkpt lat="51.214637283626" lon="4.483855998414">
        <ele>0</ele>
        <time>2020-07-04T11:04:26Z</time>
      </trkpt>
      <trkpt lat="51.21465035939" lon="4.484177528098">
        <ele>0</ele>
        <time>2020-07-04T11:04:34Z</time>
      </trkpt>
      <trkpt lat="51.2146830488" lon="4.484495537384">
        <ele>1.2</ele>
        <time>2020-07-04T11:04:42Z</time>
      </trkpt>
      <trkpt lat="51.214794444251" lon="4.484763925822">
        <ele>2.2</ele>
        <time>2020-07-04T11:04:50Z</time>
      </trkpt>
      <trkpt lat="51.214962752803" lon="4.484922930465">
        <ele>3.6</ele>
        <time>2020-07-04T11:04:58Z</time>
      </trkpt>
      <trkpt lat="51.215151764648" lon="4.48491245309">
        <ele>4.2</ele>
        <time>2020-07-04T11:05:08Z</time>
      </trkpt>
      <trkpt lat="51.21530163302" lon="4.484752694076">
        <ele>3.2</ele>
        <time>2020-07-04T11:05:18Z</time>
      </trkpt>
      <trkpt lat="51.215424511674" lon="4.484527472423">
        <ele>2.8</ele>
        <time>2020-07-04T11:05:28Z</time>
      </trkpt>
      <trkpt lat="51.215434234678" lon="4.484493022814">
        <ele>2.4</ele>
        <time>2020-07-04T11:05:30Z</time>
      </trkpt>
      <trkpt lat="51.215396013214" lon="4.482920410736">
        <ele>0</ele>
        <time>2020-07-04T11:09:18Z</time>
      </trkpt>
      <trkpt lat="51.215370951333" lon="4.482878082141">
        <ele>0</ele>
        <time>2020-07-04T11:09:19Z</time>
      </trkpt>
      <trkpt lat="51.215243127358" lon="4.482650932651">
        <ele>1</ele>
        <time>2020-07-04T11:09:27Z</time>
      </trkpt>
      <trkpt lat="51.215079847946" lon="4.482492179465">
        <ele>1.2</ele>
        <time>2020-07-04T11:09:34Z</time>
      </trkpt>
      <trkpt lat="51.214891506653" lon="4.482484635755">
        <ele>0</ele>
        <time>2020-07-04T11:09:41Z</time>
      </trkpt>
      <trkpt lat="51.214727053775" lon="4.482616399223">
        <ele>0</ele>
        <time>2020-07-04T11:09:48Z</time>
      </trkpt>
      <trkpt lat="51.214609707175" lon="4.482876824856">
        <ele>0</ele>
        <time>2020-07-04T11:09:55Z</time>
      </trkpt>
      <trkpt lat="51.214564947829" lon="4.48318075255">
        <ele>0</ele>
        <time>2020-07-04T11:10:02Z</time>
      </trkpt>
      <trkpt lat="51.214568384408" lon="4.483468419358">
        <ele>0</ele>
        <time>2020-07-04T11:10:08Z</time>
      </trkpt>
      <trkpt lat="51.214583723285" lon="4.483794642906">
        <ele>0.4</ele>
        <time>2020-07-04T11:10:15Z</time>
      </trkpt>
      <trkpt lat="51.214615490686" lon="4.484354302369">
        <ele>1</ele>
        <time>2020-07-04T11:10:28Z</time>
      </trkpt>
      <trkpt lat="51.214669470122" lon="4.48464674686">
        <ele>1.2</ele>
        <time>2020-07-04T11:10:36Z</time>
      </trkpt>
      <trkpt lat="51.214798383744" lon="4.484863418975">
        <ele>1.6</ele>
        <time>2020-07-04T11:10:44Z</time>
      </trkpt>
      <trkpt lat="51.214984545743" lon="4.484958637359">
        <ele>2.6</ele>
        <time>2020-07-04T11:10:53Z</time>
      </trkpt>
      <trkpt lat="51.215183029135" lon="4.484925947949">
        <ele>3</ele>
        <time>2020-07-04T11:11:02Z</time>
      </trkpt>
      <trkpt lat="51.21522368135" lon="4.484896192204">
        <ele>3</ele>
        <time>2020-07-04T11:11:03Z</time>
      </trkpt>
      <trkpt lat="51.215368604401" lon="4.484685555057">
        <ele>2.4</ele>
        <time>2020-07-04T11:11:13Z</time>
      </trkpt>
      <trkpt lat="51.215449489736" lon="4.484414735868">
        <ele>0.4</ele>
        <time>2020-07-04T11:11:21Z</time>
      </trkpt>
      <trkpt lat="51.215455357066" lon="4.484115753495">
        <ele>0</ele>
        <time>2020-07-04T11:11:29Z</time>
      </trkpt>
      <trkpt lat="51.215453429229" lon="4.483799923503">
        <ele>0.4</ele>
        <time>2020-07-04T11:11:37Z</time>
      </trkpt>
      <trkpt lat="51.215443370949" lon="4.483501946958">
        <ele>0.6</ele>
        <time>2020-07-04T11:11:45Z</time>
      </trkpt>
      <trkpt lat="51.215435156687" lon="4.483199863282">
        <ele>0.8</ele>
        <time>2020-07-04T11:11:53Z</time>
      </trkpt>
      <trkpt lat="51.21542233238" lon="4.483000793157">
        <ele>0</ele>
        <time>2020-07-04T11:12:02Z</time>
      </trkpt>
      <trkpt lat="51.214554638092" lon="4.483070027651">
        <ele>0</ele>
        <time>2020-07-04T11:16:48Z</time>
      </trkpt>
      <trkpt lat="51.214540807957" lon="4.483373284793">
        <ele>0</ele>
        <time>2020-07-04T11:17:00Z</time>
      </trkpt>
      <trkpt lat="51.214560589241" lon="4.483688528052">
        <ele>0</ele>
        <time>2020-07-04T11:17:10Z</time>
      </trkpt>
      <trkpt lat="51.214586992226" lon="4.484002094931">
        <ele>0</ele>
        <time>2020-07-04T11:17:19Z</time>
      </trkpt>
      <trkpt lat="51.214601157637" lon="4.484289258825">
        <ele>0</ele>
        <time>2020-07-04T11:17:27Z</time>
      </trkpt>
      <trkpt lat="51.214648012458" lon="4.484566867353">
        <ele>0</ele>
        <time>2020-07-04T11:17:35Z</time>
      </trkpt>
      <trkpt lat="51.214750690733" lon="4.484803320752">
        <ele>0</ele>
        <time>2020-07-04T11:17:43Z</time>
      </trkpt>
      <trkpt lat="51.214928303194" lon="4.484937347333">
        <ele>0</ele>
        <time>2020-07-04T11:17:52Z</time>
      </trkpt>
      <trkpt lat="51.215128798242" lon="4.484924103931">
        <ele>1.4</ele>
        <time>2020-07-04T11:18:01Z</time>
      </trkpt>
      <trkpt lat="51.215284617763" lon="4.484784293839">
        <ele>3.6</ele>
        <time>2020-07-04T11:18:08Z</time>
      </trkpt>
      <trkpt lat="51.215408166969" lon="4.484529903174">
        <ele>6</ele>
        <time>2020-07-04T11:18:16Z</time>
      </trkpt>
      <trkpt lat="51.215452842496" lon="4.484236704312">
        <ele>6.4</ele>
        <time>2020-07-04T11:18:24Z</time>
      </trkpt>
      <trkpt lat="51.215445717881" lon="4.483947277305">
        <ele>6.4</ele>
        <time>2020-07-04T11:18:32Z</time>
      </trkpt>
      <trkpt lat="51.215423338208" lon="4.48363505153">
        <ele>5.4</ele>
        <time>2020-07-04T11:18:41Z</time>
      </trkpt>
      <trkpt lat="51.215426774787" lon="4.48332240666">
        <ele>4.2</ele>
        <time>2020-07-04T11:18:50Z</time>
      </trkpt>
      <trkpt lat="51.215409591892" lon="4.483005151745">
        <ele>1.4</ele>
        <time>2020-07-04T11:18:59Z</time>
      </trkpt>
      <trkpt lat="51.215336166448" lon="4.482736847126">
        <ele>0</ele>
        <time>2020-07-04T11:19:07Z</time>
      </trkpt>
      <trkpt lat="51.215181939488" lon="4.482542387046">
        <ele>0</ele>
        <time>2020-07-04T11:19:15Z</time>
      </trkpt>
      <trkpt lat="51.214991586539" lon="4.482465692661">
        <ele>0</ele>
        <time>2020-07-04T11:19:23Z</time>
      </trkpt>
      <trkpt lat="51.214807855291" lon="4.482525120332">
        <ele>0</ele>
        <time>2020-07-04T11:19:31Z</time>
      </trkpt>
      <trkpt lat="51.214670392131" lon="4.482723352267">
        <ele>0.8</ele>
        <time>2020-07-04T11:19:38Z</time>
      </trkpt>
      <trkpt lat="51.21460006799" lon="4.482915716872">
        <ele>0.2</ele>
        <time>2020-07-04T11:19:46Z</time>
      </trkpt>
      <trkpt lat="51.214604678035" lon="4.484557814901">
        <ele>0.6</ele>
        <time>2020-07-04T11:24:57Z</time>
      </trkpt>
      <trkpt lat="51.214611299736" lon="4.484573740511">
        <ele>0.8</ele>
        <time>2020-07-04T11:24:58Z</time>
      </trkpt>
      <trkpt lat="51.214631248658" lon="4.484628893413">
        <ele>0.6</ele>
        <time>2020-07-04T11:25:00Z</time>
      </trkpt>
      <trkpt lat="51.214766616343" lon="4.48484204513">
        <ele>0.2</ele>
        <time>2020-07-04T11:25:08Z</time>
      </trkpt>
      <trkpt lat="51.214955628188" lon="4.484961151929">
        <ele>0.4</ele>
        <time>2020-07-04T11:25:16Z</time>
      </trkpt>
      <trkpt lat="51.215143047472" lon="4.484944471948">
        <ele>1.6</ele>
        <time>2020-07-04T11:25:24Z</time>
      </trkpt>
      <trkpt lat="51.215321581942" lon="4.484794519757">
        <ele>3.2</ele>
        <time>2020-07-04T11:25:32Z</time>
      </trkpt>
      <trkpt lat="51.215433061212" lon="4.484570974484">
        <ele>3.4</ele>
        <time>2020-07-04T11:25:39Z</time>
      </trkpt>
      <trkpt lat="51.21547513835" lon="4.484285319332">
        <ele>4.4</ele>
        <time>2020-07-04T11:25:46Z</time>
      </trkpt>
      <trkpt lat="51.215456949627" lon="4.48397787124">
        <ele>3.2</ele>
        <time>2020-07-04T11:25:53Z</time>
      </trkpt>
      <trkpt lat="51.215424595493" lon="4.483698837789">
        <ele>1.8</ele>
        <time>2020-07-04T11:26:00Z</time>
      </trkpt>
      <trkpt lat="51.215389475332" lon="4.483379487399">
        <ele>1.6</ele>
        <time>2020-07-04T11:26:08Z</time>
      </trkpt>
      <trkpt lat="51.215374974645" lon="4.483071368755">
        <ele>0.8</ele>
        <time>2020-07-04T11:26:16Z</time>
      </trkpt>
      <trkpt lat="51.215298783174" lon="4.482781355015">
        <ele>0</ele>
        <time>2020-07-04T11:26:25Z</time>
      </trkpt>
      <trkpt lat="51.215145478223" lon="4.482584883279">
        <ele>0</ele>
        <time>2020-07-04T11:26:34Z</time>
      </trkpt>
      <trkpt lat="51.214965435011" lon="4.482541045942">
        <ele>0.8</ele>
        <time>2020-07-04T11:26:42Z</time>
      </trkpt>
      <trkpt lat="51.214661088222" lon="4.482812368045">
        <ele>3.4</ele>
        <time>2020-07-04T11:26:56Z</time>
      </trkpt>
      <trkpt lat="51.214577017765" lon="4.483085701804">
        <ele>2.4</ele>
        <time>2020-07-04T11:27:04Z</time>
      </trkpt>
      <trkpt lat="51.214548770762" lon="4.483379235942">
        <ele>1.6</ele>
        <time>2020-07-04T11:27:11Z</time>
      </trkpt>
      <trkpt lat="51.21456151125" lon="4.483664723456">
        <ele>0.6</ele>
        <time>2020-07-04T11:27:18Z</time>
      </trkpt>
      <trkpt lat="51.214572742996" lon="4.483959933974">
        <ele>1.4</ele>
        <time>2020-07-04T11:27:25Z</time>
      </trkpt>
      <trkpt lat="51.214577772136" lon="4.484178533926">
        <ele>2.2</ele>
        <time>2020-07-04T11:27:31Z</time>
      </trkpt>
      <trkpt lat="51.215488046476" lon="4.484476007557">
        <ele>1.6</ele>
        <time>2020-07-04T11:31:13Z</time>
      </trkpt>
      <trkpt lat="51.215486956829" lon="4.484402665932">
        <ele>2.2</ele>
        <time>2020-07-04T11:31:16Z</time>
      </trkpt>
      <trkpt lat="51.215468097554" lon="4.484091613623">
        <ele>1.4</ele>
        <time>2020-07-04T11:31:24Z</time>
      </trkpt>
      <trkpt lat="51.215455524704" lon="4.483794642906">
        <ele>2.2</ele>
        <time>2020-07-04T11:31:31Z</time>
      </trkpt>
      <trkpt lat="51.215437838895" lon="4.483498258922">
        <ele>2</ele>
        <time>2020-07-04T11:31:38Z</time>
      </trkpt>
      <trkpt lat="51.215424595493" lon="4.483178908532">
        <ele>1.8</ele>
        <time>2020-07-04T11:31:46Z</time>
      </trkpt>
      <trkpt lat="51.215374807007" lon="4.482885458213">
        <ele>2</ele>
        <time>2020-07-04T11:31:54Z</time>
      </trkpt>
      <trkpt lat="51.215267937782" lon="4.482641544923">
        <ele>0.2</ele>
        <time>2020-07-04T11:32:03Z</time>
      </trkpt>
      <trkpt lat="51.215106670026" lon="4.482502573021">
        <ele>0</ele>
        <time>2020-07-04T11:32:12Z</time>
      </trkpt>
      <trkpt lat="51.214983456096" lon="4.482474577475">
        <ele>0</ele>
        <time>2020-07-04T11:32:19Z</time>
      </trkpt>
    </trkseg>
  </trk>
</gpx>